Time;durP1;ratioP1;P1;durP2;ratioP2;P2;SDS_P1;SDS_P2;PMS_P1;PMS_P2;Temp;Humidity;BMP_temperature;BMP_pressure;BME280_temperature;BME280_humidity;BME280_pressure;Samples;Min_cycle;Max_cycle;Signal;HPM_P1;HPM_P2
2023/09/01 00:02:01;;;;;;;3.50;1.80;;;;;;;14.03;100.00;100061.59;177357;1262;46374;-84
2023/09/01 00:06:11;;;;;;;3.10;2.00;;;;;;;14.10;100.00;100068.05;178188;1263;46450;-84
2023/09/01 00:10:15;;;;;;;2.20;2.00;;;;;;;14.15;100.00;100069.17;178263;1264;44791;-84
2023/09/01 00:14:18;;;;;;;2.80;1.30;;;;;;;14.23;100.00;100070.21;176886;1263;45436;-82
2023/09/01 00:18:21;;;;;;;3.40;1.30;;;;;;;14.29;100.00;100079.35;178421;1264;59441;-84
2023/09/01 00:22:24;;;;;;;1.70;1.10;;;;;;;14.38;100.00;100078.85;177708;1264;46031;-83
2023/09/01 00:26:27;;;;;;;3.00;1.90;;;;;;;14.40;100.00;100074.85;177543;1264;44841;-83
2023/09/01 00:30:30;;;;;;;1.90;1.70;;;;;;;14.49;100.00;100069.33;178531;1262;46150;-83
2023/09/01 00:34:33;;;;;;;2.40;1.60;;;;;;;14.57;100.00;100066.91;178147;1263;46103;-83
2023/09/01 00:38:36;;;;;;;3.30;2.20;;;;;;;14.61;100.00;100059.55;177917;1262;59324;-82
2023/09/01 00:42:42;;;;;;;2.80;1.80;;;;;;;14.66;100.00;100054.96;178550;1264;44541;-81
2023/09/01 00:46:46;;;;;;;3.20;1.50;;;;;;;14.67;100.00;100046.13;177750;1262;45981;-83
2023/09/01 00:50:50;;;;;;;1.60;1.40;;;;;;;14.61;100.00;100041.59;177469;1264;46022;-83
2023/09/01 00:54:53;;;;;;;1.40;1.20;;;;;;;14.59;100.00;100041.73;177946;1263;46007;-83
2023/09/01 00:58:57;;;;;;;2.00;1.40;;;;;;;14.61;100.00;100044.61;177488;1266;58216;-83
2023/09/01 01:03:02;;;;;;;19.10;2.50;;;;;;;14.57;100.00;100043.94;177758;1262;46014;-83
2023/09/01 01:07:30;;;;;;;3.60;1.70;;;;;;;14.53;100.00;100040.05;176760;1264;45843;-82
2023/09/01 01:11:55;;;;;;;2.50;1.40;;;;;;;14.51;100.00;100040.96;177160;1262;46194;-83
2023/09/01 01:15:59;;;;;;;5.30;1.90;;;;;;;14.47;100.00;100040.88;177991;1262;46654;-81
2023/09/01 01:20:18;;;;;;;1.70;1.20;;;;;;;14.42;100.00;100039.02;177414;1263;59368;-81
2023/09/01 01:24:22;;;;;;;2.30;1.50;;;;;;;14.45;100.00;100038.55;177301;1264;46147;-82
2023/09/01 01:28:27;;;;;;;2.10;1.80;;;;;;;14.45;100.00;100042.84;178345;1264;44566;-83
2023/09/01 01:32:30;;;;;;;3.10;1.40;;;;;;;14.44;100.00;100046.48;177718;1262;46146;-83
2023/09/01 01:36:40;;;;;;;2.30;1.60;;;;;;;14.46;100.00;100041.70;177283;1262;46205;-83
2023/09/01 01:40:47;;;;;;;2.70;1.40;;;;;;;14.50;100.00;100040.67;177328;1266;58089;-83
2023/09/01 01:44:54;;;;;;;5.50;1.50;;;;;;;14.54;100.00;100038.29;178042;1262;44421;-83
2023/09/01 01:48:57;;;;;;;3.10;1.50;;;;;;;14.56;100.00;100038.28;178259;1262;44190;-81
2023/09/01 01:53:00;;;;;;;2.00;1.60;;;;;;;14.51;100.00;100046.48;177815;1262;45984;-82
2023/09/01 01:57:04;;;;;;;3.50;2.00;;;;;;;14.44;100.00;100048.05;177385;1263;46001;-83
2023/09/01 02:01:07;;;;;;;1.10;1.00;;;;;;;14.30;100.00;100047.70;178058;1263;59737;-84
2023/09/01 02:05:11;;;;;;;2.50;1.40;;;;;;;14.22;100.00;100046.01;178536;1261;46069;-83
2023/09/01 02:09:14;;;;;;;4.00;1.60;;;;;;;14.16;100.00;100042.91;177707;1266;46003;-83
2023/09/01 02:13:18;;;;;;;1.50;1.30;;;;;;;14.09;100.00;100045.30;177119;1263;46190;-81
2023/09/01 02:17:21;;;;;;;3.10;2.00;;;;;;;14.11;100.00;100045.64;176940;1262;46217;-82
2023/09/01 02:21:25;;;;;;;3.20;1.80;;;;;;;14.16;100.00;100047.69;178417;1263;57956;-83
2023/09/01 02:25:28;;;;;;;2.10;1.70;;;;;;;14.19;100.00;100044.20;178246;1261;46151;-83
2023/09/01 02:29:31;;;;;;;1.80;1.30;;;;;;;14.10;100.00;100043.98;178402;1261;45922;-83
2023/09/01 02:33:35;;;;;;;11.90;1.60;;;;;;;14.01;100.00;100039.69;178594;1262;46111;-83
2023/09/01 02:37:38;;;;;;;2.60;1.20;;;;;;;14.00;100.00;100039.13;178518;1261;46003;-83
2023/09/01 02:41:41;;;;;;;6.80;2.30;;;;;;;14.03;100.00;100041.30;177538;1261;59291;-83
2023/09/01 02:45:44;;;;;;;3.00;1.80;;;;;;;14.04;100.00;100038.39;177328;1263;46156;-83
2023/09/01 02:49:47;;;;;;;4.10;1.60;;;;;;;14.01;100.00;100037.42;177551;1261;44878;-82
2023/09/01 02:53:50;;;;;;;2.10;1.00;;;;;;;13.96;100.00;100036.28;177468;1261;46001;-83
2023/09/01 02:57:53;;;;;;;4.40;1.70;;;;;;;13.89;100.00;100041.95;177715;1262;46021;-83
2023/09/01 03:01:56;;;;;;;5.40;2.10;;;;;;;13.88;100.00;100047.81;178628;1261;57953;-83
2023/09/01 03:05:59;;;;;;;2.60;2.00;;;;;;;13.82;100.00;100050.11;177772;1261;46038;-82
2023/09/01 03:10:07;;;;;;;3.50;1.20;;;;;;;13.79;100.00;100053.16;178122;1262;46038;-82
2023/09/01 03:14:11;;;;;;;3.90;2.30;;;;;;;13.76;100.00;100052.90;177915;1262;45249;-83
2023/09/01 03:18:14;;;;;;;2.60;1.80;;;;;;;13.70;100.00;100045.98;178790;1263;44252;-81
2023/09/01 03:22:22;;;;;;;3.30;2.40;;;;;;;13.65;100.00;100049.48;178558;1262;58697;-82
2023/09/01 03:26:25;;;;;;;2.00;1.80;;;;;;;13.61;100.00;100045.13;180167;1261;46159;-82
2023/09/01 03:30:28;;;;;;;3.20;2.30;;;;;;;13.51;100.00;100044.39;176345;1264;46153;-81
2023/09/01 03:34:31;;;;;;;5.40;2.30;;;;;;;13.46;100.00;100054.55;177189;1262;46591;-82
2023/09/01 03:38:38;;;;;;;4.20;2.10;;;;;;;13.38;100.00;100056.04;177757;1262;46144;-82
2023/09/01 03:42:41;;;;;;;4.00;2.00;;;;;;;13.32;100.00;100057.81;178168;1261;58625;-82
2023/09/01 03:46:44;;;;;;;4.20;2.20;;;;;;;13.33;100.00;100063.29;180410;1261;43871;-81
2023/09/01 03:51:04;;;;;;;3.50;1.70;;;;;;;13.37;100.00;100061.29;178513;1261;46749;-82
2023/09/01 03:55:08;;;;;;;3.80;2.60;;;;;;;13.36;100.00;100062.23;177335;1261;44482;-82
2023/09/01 03:59:11;;;;;;;2.40;1.90;;;;;;;13.38;100.00;100067.42;177798;1261;46242;-82
2023/09/01 04:03:14;;;;;;;3.30;2.00;;;;;;;13.37;100.00;100076.04;177206;1262;58229;-82
2023/09/01 04:07:17;;;;;;;3.90;1.90;;;;;;;13.37;100.00;100080.52;177302;1264;46245;-82
2023/09/01 04:11:20;;;;;;;2.80;2.20;;;;;;;13.38;100.00;100082.55;176697;1262;48156;-81
2023/09/01 04:15:23;;;;;;;4.00;2.20;;;;;;;13.41;100.00;100076.92;178264;1263;46114;-83
2023/09/01 04:19:26;;;;;;;3.80;1.30;;;;;;;13.41;100.00;100073.29;176956;1262;45841;-82
2023/09/01 04:23:31;;;;;;;2.40;1.60;;;;;;;13.41;100.00;100075.95;177640;1261;57925;-82
2023/09/01 04:27:35;;;;;;;4.00;2.20;;;;;;;13.47;100.00;100076.71;177007;1263;46034;-82
2023/09/01 04:31:38;;;;;;;3.40;2.50;;;;;;;13.60;100.00;100078.48;178672;1261;46096;-82
2023/09/01 04:35:42;;;;;;;4.40;1.90;;;;;;;13.95;100.00;100083.84;177899;1262;46237;-83
2023/09/01 04:39:45;;;;;;;2.30;1.50;;;;;;;14.38;100.00;100087.62;177333;1265;49291;-83
2023/09/01 04:43:48;;;;;;;3.80;1.90;;;;;;;14.99;100.00;100088.19;177955;1262;57992;-83
2023/09/01 04:47:52;;;;;;;4.70;1.80;;;;;;;15.61;100.00;100089.79;177965;1261;45922;-83
2023/09/01 04:51:55;;;;;;;3.50;2.10;;;;;;;16.12;100.00;100094.77;177565;1264;46015;-83
2023/09/01 04:55:58;;;;;;;2.20;2.00;;;;;;;16.44;100.00;100093.27;177280;1262;46245;-83
2023/09/01 05:00:02;;;;;;;3.60;2.40;;;;;;;16.59;100.00;100096.64;176781;1262;46009;-83
2023/09/01 05:04:07;;;;;;;2.60;1.80;;;;;;;16.81;100.00;100099.41;177773;1261;59812;-82
2023/09/01 05:08:13;;;;;;;1.80;1.70;;;;;;;16.90;100.00;100103.29;178501;1261;46202;-83
2023/09/01 05:12:16;;;;;;;3.50;1.40;;;;;;;16.82;99.94;100105.60;178356;1261;46128;-83
2023/09/01 05:16:19;;;;;;;3.70;1.70;;;;;;;16.93;99.83;100107.33;177693;1262;46016;-82
2023/09/01 05:20:22;;;;;;;3.60;1.70;;;;;;;17.08;99.54;100098.83;177151;1262;46193;-83
2023/09/01 05:24:25;;;;;;;2.10;1.90;;;;;;;17.16;99.72;100096.09;177082;1262;59281;-83
2023/09/01 05:28:29;;;;;;;2.30;1.10;;;;;;;17.47;99.81;100091.05;177081;1261;45998;-83
2023/09/01 05:32:34;;;;;;;4.20;1.50;;;;;;;17.88;97.60;100091.35;177488;1261;46010;-83
2023/09/01 05:36:37;;;;;;;3.60;1.70;;;;;;;18.35;96.14;100093.20;177663;1262;46120;-83
2023/09/01 05:40:40;;;;;;;3.10;1.90;;;;;;;18.65;93.50;100093.52;178256;1261;46075;-83
2023/09/01 05:44:43;;;;;;;7.50;1.70;;;;;;;18.95;92.03;100090.50;177444;1261;57235;-82
2023/09/01 05:48:46;;;;;;;2.70;1.00;;;;;;;19.29;89.15;100096.15;177804;1261;46323;-83
2023/09/01 05:52:49;;;;;;;2.30;1.90;;;;;;;19.46;87.88;100099.54;177521;1262;46007;-83
2023/09/01 05:56:52;;;;;;;3.30;2.00;;;;;;;19.60;86.88;100097.51;178051;1261;46004;-83
2023/09/01 06:00:56;;;;;;;3.70;2.00;;;;;;;19.76;86.25;100104.29;177764;1262;44778;-83
2023/09/01 06:04:59;;;;;;;3.40;1.10;;;;;;;19.84;84.02;100108.86;177624;1262;57928;-83
2023/09/01 06:09:07;;;;;;;2.80;1.70;;;;;;;19.79;83.22;100111.33;177499;1262;46106;-82
2023/09/01 06:13:10;;;;;;;4.50;1.70;;;;;;;19.85;83.92;100109.94;178350;1262;46234;-83
2023/09/01 06:17:13;;;;;;;2.80;2.20;;;;;;;19.94;83.14;100110.77;178334;1262;45716;-83
2023/09/01 06:21:17;;;;;;;3.00;2.20;;;;;;;20.21;83.91;100110.79;178288;1261;46154;-83
2023/09/01 06:25:20;;;;;;;4.10;2.00;;;;;;;20.41;83.59;100116.98;178088;1264;58245;-83
2023/09/01 06:29:23;;;;;;;2.20;1.70;;;;;;;20.61;81.37;100119.44;178417;1262;46164;-83
2023/09/01 06:33:27;;;;;;;2.70;1.70;;;;;;;20.78;80.85;100123.00;178209;1261;44393;-83
2023/09/01 06:37:30;;;;;;;3.40;1.20;;;;;;;20.79;78.53;100127.55;178726;1261;46007;-83
2023/09/01 06:41:33;;;;;;;2.20;1.30;;;;;;;20.76;79.56;100132.75;178037;1261;46164;-82
2023/09/01 06:45:36;;;;;;;3.60;1.70;;;;;;;20.68;79.98;100133.73;177493;1262;59350;-81
2023/09/01 06:49:40;;;;;;;1.30;1.20;;;;;;;20.72;79.76;100134.48;177852;1262;44864;-81
2023/09/01 06:53:43;;;;;;;2.50;1.40;;;;;;;20.79;78.78;100133.95;177720;1262;46156;-81
2023/09/01 06:57:46;;;;;;;3.20;1.60;;;;;;;20.88;80.87;100137.53;177557;1262;46147;-80
2023/09/01 07:01:49;;;;;;;4.90;1.80;;;;;;;20.99;80.27;100138.92;177184;1262;46157;-82
2023/09/01 07:05:57;;;;;;;2.60;2.20;;;;;;;21.03;80.45;100137.09;177235;1261;57981;-82
2023/09/01 07:10:01;;;;;;;2.60;1.50;;;;;;;21.16;80.50;100138.66;177950;1262;45793;-83
2023/09/01 07:14:04;;;;;;;3.50;1.80;;;;;;;21.32;80.58;100131.00;178373;1261;46135;-82
2023/09/01 07:18:07;;;;;;;3.40;2.10;;;;;;;21.42;79.23;100135.58;177784;1262;46003;-82
2023/09/01 07:22:10;;;;;;;2.70;1.90;;;;;;;21.61;79.24;100142.45;178456;1262;46003;-83
2023/09/01 07:26:13;;;;;;;2.60;1.40;;;;;;;21.68;76.85;100143.14;177880;1261;57753;-83
2023/09/01 07:30:17;;;;;;;3.40;2.30;;;;;;;21.68;76.10;100140.25;178173;1262;45978;-83
2023/09/01 07:34:20;;;;;;;2.70;1.40;;;;;;;21.69;76.08;100142.80;178102;1261;46083;-83
2023/09/01 07:38:23;;;;;;;4.00;1.90;;;;;;;21.73;77.52;100145.23;178136;1262;46133;-83
2023/09/01 07:42:27;;;;;;;3.10;2.20;;;;;;;21.97;79.66;100138.67;177788;1262;44806;-83
2023/09/01 07:46:33;;;;;;;2.70;1.50;;;;;;;21.99;75.33;100135.27;177815;1262;59536;-83
2023/09/01 07:50:36;;;;;;;5.30;2.00;;;;;;;21.52;73.55;100146.79;178010;1262;46128;-82
2023/09/01 07:54:40;;;;;;;2.40;1.50;;;;;;;21.47;75.22;100148.64;178248;1262;46032;-82
2023/09/01 07:58:43;;;;;;;4.90;1.80;;;;;;;21.51;76.42;100149.36;177946;1262;46007;-83
2023/09/01 08:02:47;;;;;;;3.90;1.90;;;;;;;21.48;76.85;100146.02;177666;1262;46174;-82
2023/09/01 08:06:50;;;;;;;4.60;1.90;;;;;;;21.47;76.20;100151.67;177630;1262;58194;-83
2023/09/01 08:10:54;;;;;;;12.30;2.30;;;;;;;21.06;77.83;100149.73;177233;1262;46013;-83
2023/09/01 08:14:57;;;;;;;3.20;2.30;;;;;;;20.91;78.01;100155.68;178094;1264;44262;-82
2023/09/01 08:19:02;;;;;;;2.50;1.50;;;;;;;21.04;80.04;100153.48;176914;1264;46122;-82
2023/09/01 08:23:05;;;;;;;2.60;1.70;;;;;;;21.28;77.76;100150.16;177926;1261;46044;-82
2023/09/01 08:27:08;;;;;;;2.70;1.30;;;;;;;21.31;75.80;100145.77;177355;1262;57271;-82
2023/09/01 08:31:11;;;;;;;5.00;2.10;;;;;;;21.25;76.68;100146.95;178036;1262;46103;-82
2023/09/01 08:35:14;;;;;;;3.30;1.40;;;;;;;21.29;76.33;100149.05;177294;1262;46140;-82
2023/09/01 08:39:18;;;;;;;10.60;2.30;;;;;;;21.31;75.45;100142.81;178528;1261;46257;-82
2023/09/01 08:43:21;;;;;;;3.80;1.50;;;;;;;21.21;76.46;100139.44;178191;1262;46042;-83
2023/09/01 08:47:30;;;;;;;3.30;2.40;;;;;;;21.15;75.92;100133.91;177743;1262;57952;-82
2023/09/01 08:51:40;;;;;;;4.00;2.10;;;;;;;21.21;76.44;100138.06;177781;1262;46213;-82
2023/09/01 08:55:43;;;;;;;3.20;1.90;;;;;;;21.19;75.21;100131.98;177843;1262;46041;-83
2023/09/01 08:59:46;;;;;;;4.90;2.20;;;;;;;21.04;77.84;100138.46;178095;1262;46056;-83
2023/09/01 09:03:49;;;;;;;3.50;1.50;;;;;;;21.04;76.17;100139.00;177905;1261;44131;-82
2023/09/01 09:07:58;;;;;;;3.60;2.00;;;;;;;21.05;76.92;100140.63;177226;1262;59525;-82
2023/09/01 09:12:01;;;;;;;3.00;1.70;;;;;;;21.19;77.18;100137.27;177302;1262;46101;-82
2023/09/01 09:16:15;;;;;;;2.60;1.40;;;;;;;21.24;74.19;100132.72;177403;1266;46112;-82
2023/09/01 09:20:22;;;;;;;3.90;1.80;;;;;;;21.21;75.33;100135.81;177861;1262;45980;-83
2023/09/01 09:24:36;;;;;;;6.00;4.10;;;;;;;21.28;73.71;100133.48;177046;1262;46597;-83
2023/09/01 09:28:40;;;;;;;5.60;2.50;;;;;;;21.24;73.28;100135.09;177528;1261;59844;-82
2023/09/01 09:32:43;;;;;;;2.80;1.90;;;;;;;21.30;76.82;100135.98;177193;1262;46002;-82
2023/09/01 09:36:48;;;;;;;2.60;1.80;;;;;;;21.34;72.64;100133.46;177794;1262;44748;-82
2023/09/01 09:41:02;;;;;;;5.00;3.00;;;;;;;21.37;76.57;100141.26;178456;1262;195861;-83
2023/09/01 09:45:20;;;;;;;5.20;2.40;;;;;;;21.51;76.65;100139.25;177876;1262;45880;-82
2023/09/01 09:49:25;;;;;;;3.60;1.70;;;;;;;21.54;73.08;100137.77;177831;1262;58995;-82
2023/09/01 09:53:32;;;;;;;5.50;2.30;;;;;;;21.69;73.39;100135.05;177802;1262;46071;-82
2023/09/01 09:57:38;;;;;;;4.00;2.20;;;;;;;21.80;73.08;100127.33;177574;1262;46021;-82
2023/09/01 10:01:44;;;;;;;4.30;2.60;;;;;;;21.91;72.29;100131.12;178076;1261;46058;-83
2023/09/01 10:05:50;;;;;;;4.10;2.60;;;;;;;22.05;72.53;100131.66;177304;1262;46007;-83
2023/09/01 10:09:54;;;;;;;3.70;2.20;;;;;;;22.28;72.60;100124.05;177907;1261;58341;-82
2023/09/01 10:13:59;;;;;;;9.90;2.60;;;;;;;22.34;71.74;100124.34;177712;1262;46123;-82
2023/09/01 10:18:05;;;;;;;5.70;3.30;;;;;;;22.27;69.09;100125.77;178560;1262;46352;-82
2023/09/01 10:22:09;;;;;;;3.20;1.90;;;;;;;22.30;69.61;100128.18;177875;1262;46010;-82
2023/09/01 10:26:16;;;;;;;4.00;2.10;;;;;;;22.43;69.93;100128.06;178098;1261;45916;-83
2023/09/01 10:30:27;;;;;;;6.70;2.00;;;;;;;22.55;70.03;100122.33;177538;1262;58256;-82
2023/09/01 10:34:30;;;;;;;3.70;2.00;;;;;;;22.40;70.76;100119.69;177424;1262;46142;-82
2023/09/01 10:38:33;;;;;;;7.40;2.70;;;;;;;22.12;69.45;100110.61;177448;1262;46193;-83
2023/09/01 10:42:49;;;;;;;6.00;2.30;;;;;;;22.29;71.92;100113.80;177551;1261;46093;-83
2023/09/01 10:46:52;;;;;;;4.60;1.90;;;;;;;22.58;73.98;100113.20;177296;1267;46168;-82
2023/09/01 10:51:14;;;;;;;7.70;2.20;;;;;;;22.80;69.62;100115.68;178002;1266;58339;-82
2023/09/01 10:55:17;;;;;;;5.30;2.20;;;;;;;22.90;69.13;100110.28;177889;1262;46071;-83
2023/09/01 10:59:31;;;;;;;3.50;1.90;;;;;;;23.07;70.37;100108.25;178028;1262;45821;-82
2023/09/01 11:03:37;;;;;;;3.50;1.80;;;;;;;23.26;70.00;100103.36;178230;1262;45940;-83
2023/09/01 11:08:15;;;;;;;4.70;1.80;;;;;;;23.30;69.48;100102.40;177488;1266;46068;-83
2023/09/01 11:12:28;;;;;;;2.40;1.50;;;;;;;23.28;67.46;100107.70;178727;1262;59432;-83
2023/09/01 11:16:31;;;;;;;2.00;1.80;;;;;;;23.21;70.50;100102.98;177680;1262;46047;-83
2023/09/01 11:20:34;;;;;;;4.20;2.50;;;;;;;23.17;67.38;100100.15;177858;1262;45904;-83
2023/09/01 11:24:37;;;;;;;5.90;2.20;;;;;;;23.29;68.32;100098.17;177772;1262;46136;-83
2023/09/01 11:28:41;;;;;;;2.50;1.60;;;;;;;23.41;68.21;100095.55;178576;1262;46121;-83
2023/09/01 11:32:44;;;;;;;6.20;1.70;;;;;;;23.56;68.00;100097.35;178551;1262;59426;-83
2023/09/01 11:36:49;;;;;;;4.00;2.10;;;;;;;23.84;67.54;100087.59;178345;1262;45969;-83
2023/09/01 11:40:54;;;;;;;4.70;2.90;;;;;;;24.19;68.15;100086.80;178030;1266;46068;-83
2023/09/01 11:44:57;;;;;;;4.90;3.40;;;;;;;24.45;66.61;100091.09;178291;1262;46049;-83
2023/09/01 11:49:02;;;;;;;3.70;2.40;;;;;;;24.66;65.95;100090.89;178814;1262;45970;-83
2023/09/01 11:53:05;;;;;;;4.50;2.20;;;;;;;24.66;66.43;100093.66;179161;1262;59374;-84
2023/09/01 11:57:13;;;;;;;6.60;2.20;;;;;;;24.45;64.01;100091.00;178564;1262;44768;-83
2023/09/01 12:01:21;;;;;;;4.50;1.90;;;;;;;24.40;64.17;100091.21;178607;1262;46077;-83
2023/09/01 12:05:30;;;;;;;5.50;3.40;;;;;;;24.46;64.66;100080.67;178132;1262;44528;-83
2023/09/01 12:09:33;;;;;;;4.20;1.60;;;;;;;24.49;66.25;100083.77;178177;1262;46188;-83
2023/09/01 12:13:36;;;;;;;2.80;1.70;;;;;;;24.41;63.79;100091.41;178015;1262;58014;-83
2023/09/01 12:17:39;;;;;;;3.30;2.60;;;;;;;24.48;64.88;100091.98;178228;1262;46050;-83
2023/09/01 12:21:43;;;;;;;5.80;2.10;;;;;;;24.46;64.80;100094.96;178136;1262;46020;-84
2023/09/01 12:25:46;;;;;;;5.70;2.30;;;;;;;24.45;65.60;100090.26;178944;1261;44356;-83
2023/09/01 12:29:49;;;;;;;2.60;2.30;;;;;;;24.51;64.67;100087.27;178358;1267;46023;-83
2023/09/01 12:33:53;;;;;;;2.20;1.70;;;;;;;24.40;65.20;100086.79;178608;1262;59468;-83
2023/09/01 12:37:56;;;;;;;4.20;2.40;;;;;;;24.04;65.24;100083.25;178209;1262;44535;-83
2023/09/01 12:42:00;;;;;;;3.20;2.50;;;;;;;23.95;66.44;100082.17;178406;1267;46009;-83
2023/09/01 12:46:03;;;;;;;2.80;1.90;;;;;;;24.15;66.10;100084.14;178688;1262;46045;-83
2023/09/01 12:50:07;;;;;;;12.10;3.80;;;;;;;24.38;67.03;100090.77;178593;1262;46036;-83
2023/09/01 12:54:10;;;;;;;6.40;2.30;;;;;;;24.58;65.75;100087.63;178376;1262;59595;-83
2023/09/01 12:58:14;;;;;;;4.90;2.60;;;;;;;24.56;65.50;100087.35;178718;1262;45941;-84
2023/09/01 13:02:18;;;;;;;5.00;2.30;;;;;;;24.50;64.21;100087.73;178646;1262;46108;-84
2023/09/01 13:06:21;;;;;;;2.70;1.80;;;;;;;24.23;65.31;100091.14;178760;1262;46134;-85
2023/09/01 13:10:25;;;;;;;4.00;1.90;;;;;;;24.01;65.90;100095.30;178879;1262;45704;-84
2023/09/01 13:14:28;;;;;;;3.40;2.20;;;;;;;23.82;65.82;100088.19;178982;1261;58530;-85
2023/09/01 13:18:33;;;;;;;2.60;2.30;;;;;;;23.49;65.00;100088.36;178426;1262;44696;-86
2023/09/01 13:22:36;;;;;;;4.50;2.20;;;;;;;23.53;65.79;100085.05;179103;1262;44803;-85
2023/09/01 13:26:40;;;;;;;2.80;2.00;;;;;;;23.75;67.05;100080.67;178964;1263;45960;-86
2023/09/01 13:30:44;;;;;;;3.00;1.50;;;;;;;23.68;66.12;100083.59;178463;1262;44744;-86
2023/09/01 13:34:47;;;;;;;3.00;2.30;;;;;;;23.58;68.34;100090.04;178449;1262;56989;-86
2023/09/01 13:38:50;;;;;;;2.10;1.60;;;;;;;23.43;66.72;100089.81;178669;1262;46190;-86
2023/09/01 13:42:54;;;;;;;2.20;1.60;;;;;;;23.46;69.23;100092.93;178593;1262;46044;-86
2023/09/01 13:46:57;;;;;;;3.60;2.10;;;;;;;23.55;69.72;100096.20;179173;1262;46050;-86
2023/09/01 13:51:00;;;;;;;1.40;1.00;;;;;;;23.67;68.65;100097.17;179554;1261;45903;-85
2023/09/01 13:55:05;;;;;;;3.00;0.70;;;;;;;23.64;68.09;100096.61;178753;1263;58108;-85
2023/09/01 13:59:10;;;;;;;3.90;2.00;;;;;;;23.59;67.48;100094.83;179062;1262;44692;-86
2023/09/01 14:03:14;;;;;;;3.00;1.50;;;;;;;23.61;68.56;100096.46;178702;1263;46055;-86
2023/09/01 14:07:18;;;;;;;2.90;1.10;;;;;;;23.51;67.89;100092.66;178864;1267;46135;-86
2023/09/01 14:11:22;;;;;;;1.20;1.10;;;;;;;23.51;69.69;100092.45;178415;1264;44263;-86
2023/09/01 14:15:25;;;;;;;1.50;1.40;;;;;;;23.55;70.95;100091.92;178434;1262;57858;-87
2023/09/01 14:19:29;;;;;;;3.40;1.40;;;;;;;23.85;70.54;100084.16;178483;1262;46135;-85
2023/09/01 14:23:32;;;;;;;3.60;1.60;;;;;;;24.18;68.66;100082.19;178549;1262;46079;-86
2023/09/01 14:27:35;;;;;;;3.40;1.60;;;;;;;24.28;65.82;100088.27;178477;1266;46218;-86
2023/09/01 14:31:38;;;;;;;4.00;1.30;;;;;;;24.45;64.88;100086.36;178638;1262;46162;-87
2023/09/01 14:35:51;;;;;;;3.00;1.60;;;;;;;24.56;66.42;100089.68;178452;1266;58105;-86
2023/09/01 14:39:54;;;;;;;1.60;1.00;;;;;;;24.44;65.89;100087.54;178553;1262;44271;-87
2023/09/01 14:43:58;;;;;;;1.70;1.10;;;;;;;24.36;67.69;100093.80;179349;1262;44744;-86
2023/09/01 14:48:02;;;;;;;3.60;1.70;;;;;;;24.20;68.99;100093.38;180438;1262;46069;-85
2023/09/01 14:52:06;;;;;;;1.30;1.10;;;;;;;24.06;69.34;100096.78;179801;1266;45948;-87
2023/09/01 14:56:11;;;;;;;3.10;1.30;;;;;;;23.95;70.11;100095.50;180328;1266;59566;-87
2023/09/01 15:00:15;;;;;;;2.20;1.50;;;;;;;23.85;70.61;100089.13;179131;1262;44292;-87
2023/09/01 15:04:18;;;;;;;0.80;0.70;;;;;;;23.73;69.90;100088.73;178417;1262;46159;-85
2023/09/01 15:08:21;;;;;;;1.20;1.20;;;;;;;23.61;70.70;100095.65;178131;1262;46136;-87
2023/09/01 15:12:26;;;;;;;1.80;1.20;;;;;;;23.55;71.83;100095.81;178642;1264;46062;-86
2023/09/01 15:16:29;;;;;;;1.00;0.90;;;;;;;23.44;73.92;100098.73;179080;1266;58520;-87
2023/09/01 15:20:32;;;;;;;1.50;0.70;;;;;;;23.42;73.86;100097.20;178199;1262;46114;-87
2023/09/01 15:24:36;;;;;;;2.40;0.70;;;;;;;23.48;72.91;100095.52;178081;1262;45995;-86
2023/09/01 15:28:39;;;;;;;1.20;1.10;;;;;;;23.47;71.53;100089.50;178463;1262;45264;-85
2023/09/01 15:32:42;;;;;;;1.10;0.90;;;;;;;23.70;72.73;100087.38;178974;1262;46059;-87
2023/09/01 15:36:45;;;;;;;2.70;1.10;;;;;;;23.83;70.57;100093.74;178517;1262;60529;-87
2023/09/01 15:40:50;;;;;;;1.50;1.40;;;;;;;23.80;70.61;100098.05;178971;1262;46072;-86
2023/09/01 15:44:53;;;;;;;1.80;1.00;;;;;;;23.74;71.42;100084.20;179027;1262;46122;-86
2023/09/01 15:48:57;;;;;;;3.30;1.40;;;;;;;23.70;71.60;100082.88;178888;1265;46178;-87
2023/09/01 15:53:00;;;;;;;1.10;0.80;;;;;;;23.63;71.49;100092.14;178749;1263;46019;-87
2023/09/01 15:57:03;;;;;;;1.90;1.00;;;;;;;23.53;72.20;100094.02;178502;1266;58246;-88
2023/09/01 16:01:07;;;;;;;1.70;0.90;;;;;;;23.43;73.07;100088.55;178653;1260;45025;-83
2023/09/01 16:05:28;;;;;;;1.40;1.10;;;;;;;23.29;74.86;100091.30;177764;1261;46107;-84
2023/09/01 16:09:31;;;;;;;1.40;0.80;;;;;;;23.12;76.65;100089.28;177515;1261;46191;-86
2023/09/01 16:13:35;;;;;;;1.80;1.10;;;;;;;22.94;78.18;100082.53;178898;1261;46097;-84
2023/09/01 16:17:38;;;;;;;1.40;0.60;;;;;;;22.76;78.89;100071.93;178181;1262;59543;-83
2023/09/01 16:21:42;;;;;;;3.60;1.20;;;;;;;22.62;80.78;100078.02;177865;1260;45973;-82
2023/09/01 16:25:56;;;;;;;2.60;1.10;;;;;;;22.49;82.22;100088.06;178013;1260;46048;-84
2023/09/01 16:30:00;;;;;;;1.90;1.40;;;;;;;22.36;82.59;100090.17;178130;1262;45778;-85
2023/09/01 16:34:10;;;;;;;1.10;1.00;;;;;;;22.26;83.08;100092.14;177824;1261;46075;-86
2023/09/01 16:38:14;;;;;;;3.00;1.10;;;;;;;22.22;84.58;100095.71;177798;1260;57112;-84
2023/09/01 16:42:18;;;;;;;0.80;0.60;;;;;;;22.14;87.60;100089.86;177592;1262;46185;-85
2023/09/01 16:46:21;;;;;;;4.60;1.40;;;;;;;21.93;88.00;100079.77;177996;1261;46633;-85
2023/09/01 16:50:25;;;;;;;2.60;1.20;;;;;;;21.83;86.74;100083.12;178335;1260;46004;-85
2023/09/01 16:54:30;;;;;;;4.80;3.00;;;;;;;21.71;86.32;100092.38;178134;1261;46216;-85
2023/09/01 16:58:33;;;;;;;2.60;1.40;;;;;;;21.60;86.02;100105.89;178367;1261;59514;-85
2023/09/01 17:02:37;;;;;;;4.60;2.90;;;;;;;21.48;86.34;100114.09;178558;1261;46080;-85
2023/09/01 17:06:40;;;;;;;2.30;1.90;;;;;;;21.36;87.10;100113.51;177437;1262;46009;-85
2023/09/01 17:10:44;;;;;;;4.20;2.50;;;;;;;21.26;87.36;100112.30;177685;1261;46011;-84
2023/09/01 17:14:47;;;;;;;4.00;2.00;;;;;;;21.19;87.69;100104.81;177967;1262;46028;-83
2023/09/01 17:18:50;;;;;;;4.20;2.00;;;;;;;21.09;87.87;100106.55;178055;1262;58773;-83
2023/09/01 17:22:54;;;;;;;5.40;2.60;;;;;;;21.04;88.63;100108.64;178424;1265;46132;-84
2023/09/01 17:26:57;;;;;;;4.40;2.60;;;;;;;21.02;89.50;100111.52;178155;1265;46084;-85
2023/09/01 17:31:08;;;;;;;4.70;2.40;;;;;;;20.98;89.58;100126.73;177996;1261;46088;-84
2023/09/01 17:35:14;;;;;;;5.20;2.70;;;;;;;20.93;89.73;100124.80;178002;1264;46165;-85
2023/09/01 17:39:25;;;;;;;5.80;3.10;;;;;;;20.86;90.59;100121.59;178042;1260;60540;-85
2023/09/01 17:43:31;;;;;;;3.90;2.60;;;;;;;20.77;91.41;100119.48;178311;1264;45236;-85
2023/09/01 17:47:36;;;;;;;4.70;3.00;;;;;;;20.68;91.85;100128.34;177838;1262;45963;-85
2023/09/01 17:51:43;;;;;;;3.50;2.50;;;;;;;20.64;92.38;100124.55;177625;1262;46019;-82
2023/09/01 17:55:50;;;;;;;5.30;2.70;;;;;;;20.59;92.42;100127.10;178319;1262;46218;-84
2023/09/01 17:59:55;;;;;;;3.30;2.30;;;;;;;20.56;92.48;100132.70;177907;1262;59346;-85
2023/09/01 18:03:59;;;;;;;6.10;2.30;;;;;;;20.51;92.58;100136.80;179174;1262;44493;-84
2023/09/01 18:08:04;;;;;;;4.30;2.20;;;;;;;20.45;93.20;100143.48;179416;1263;44793;-86
2023/09/01 18:12:08;;;;;;;;;;;;;;;20.36;94.49;100143.36;178720;1262;46214;-86
2023/09/01 18:16:12;;;;;;;5.00;2.30;;;;;;;20.22;95.64;100136.98;179250;1262;45780;-86
2023/09/01 18:20:17;;;;;;;5.20;3.10;;;;;;;20.15;96.21;100139.34;178937;1264;59789;-86
2023/09/01 18:24:25;;;;;;;4.50;2.20;;;;;;;20.10;96.28;100146.88;178221;1264;46183;-85
2023/09/01 18:28:28;;;;;;;4.60;2.60;;;;;;;20.11;96.43;100154.92;178426;1264;44616;-86
2023/09/01 18:32:32;;;;;;;2.80;2.50;;;;;;;20.12;96.60;100159.60;178374;1264;46049;-85
2023/09/01 18:36:36;;;;;;;3.70;1.80;;;;;;;20.10;97.31;100157.91;178293;1262;46075;-87
2023/09/01 18:40:39;;;;;;;4.20;2.70;;;;;;;20.05;97.87;100163.35;178323;1264;59228;-84